createdAt,value
2022-12-03T00:00:14.390Z,101954.37
2022-12-03T00:03:06.940Z,101955.49
2022-12-03T00:05:41.924Z,101952.65
2022-12-03T00:08:20.502Z,101950.96
2022-12-03T00:10:52.775Z,101950.02
2022-12-03T00:13:25.035Z,101952.77
2022-12-03T00:15:57.335Z,101957.14
2022-12-03T00:18:29.695Z,101954.92
2022-12-03T00:21:01.962Z,101955.20
2022-12-03T00:23:38.593Z,101959.10
2022-12-03T00:26:14.313Z,101960.46
2022-12-03T00:28:47.139Z,101951.77
2022-12-03T00:31:21.551Z,101954.22
2022-12-03T00:33:54.266Z,101959.80
2022-12-03T00:36:26.861Z,101960.23
2022-12-03T00:38:59.204Z,101962.41
2022-12-03T00:41:31.418Z,101961.39
2022-12-03T00:44:03.687Z,101961.20
2022-12-03T00:46:36.022Z,101959.59
2022-12-03T00:49:08.385Z,101961.78
2022-12-03T00:51:40.807Z,101964.06
2022-12-03T00:54:13.241Z,101961.58
2022-12-03T00:56:45.528Z,101963.66
2022-12-03T00:59:17.949Z,101961.20
2022-12-03T01:01:50.252Z,101964.52
2022-12-03T01:04:22.645Z,101963.17
2022-12-03T01:06:55.056Z,101963.17
2022-12-03T01:09:27.458Z,101962.17
2022-12-03T01:11:59.780Z,101965.98
2022-12-03T01:14:32.007Z,101966.02
2022-12-03T01:17:04.428Z,101965.16
2022-12-03T01:19:37.560Z,101963.79
2022-12-03T01:22:10.435Z,101968.40
2022-12-03T01:24:42.714Z,101964.55
2022-12-03T01:27:15.085Z,101967.48
2022-12-03T01:29:47.431Z,101965.48
2022-12-03T01:32:19.942Z,101965.96
2022-12-03T01:34:55.030Z,101967.23
2022-12-03T01:37:28.524Z,101970.05
2022-12-03T01:40:00.841Z,101971.55
2022-12-03T01:42:36.747Z,101969.90
2022-12-03T01:45:08.431Z,101968.67
2022-12-03T01:47:41.525Z,101971.95
2022-12-03T01:50:20.729Z,101973.73
2022-12-03T01:52:54.249Z,101973.77
2022-12-03T01:55:28.054Z,101970.41
2022-12-03T01:58:02.375Z,101970.94
2022-12-03T02:00:34.942Z,101972.58
2022-12-03T02:03:13.901Z,101972.85
2022-12-03T02:05:46.397Z,101972.94
2022-12-03T02:08:34.027Z,101975.88
2022-12-03T02:11:10.229Z,101979.16
2022-12-03T02:13:44.792Z,101980.55
2022-12-03T02:16:17.331Z,101980.52
2022-12-03T02:18:51.744Z,101981.04
2022-12-03T02:21:31.911Z,101982.11
2022-12-03T02:24:12.449Z,101979.67
2022-12-03T02:26:45.111Z,101979.46
2022-12-03T02:29:18.719Z,101980.91
2022-12-03T02:31:51.023Z,101981.50
2022-12-03T02:34:44.917Z,101983.70
2022-12-03T02:37:21.456Z,101986.02
2022-12-03T02:39:56.605Z,101984.23
2022-12-03T02:42:38.957Z,101985.89
2022-12-03T02:45:15.466Z,101985.35
2022-12-03T02:47:51.176Z,101983.98
2022-12-03T02:50:29.942Z,101990.47
2022-12-03T02:53:05.714Z,101990.83
2022-12-03T02:55:38.887Z,101993.43
2022-12-03T02:58:12.696Z,101992.16
2022-12-03T03:00:46.709Z,101996.44
2022-12-03T03:03:20.214Z,101996.15
2022-12-03T03:05:53.236Z,101997.34
2022-12-03T03:08:26.808Z,101996.59
2022-12-03T03:11:01.053Z,101995.70
2022-12-03T03:13:35.568Z,101998.88
2022-12-03T03:16:09.576Z,101997.92
2022-12-03T03:18:42.065Z,102004.44
2022-12-03T03:21:15.046Z,102002.89
2022-12-03T03:23:47.419Z,102005.91
2022-12-03T03:26:20.278Z,102005.14
2022-12-03T03:28:53.787Z,102008.13
2022-12-03T03:31:26.834Z,102009.73
2022-12-03T03:33:59.634Z,102014.16
2022-12-03T03:36:32.594Z,102012.55
2022-12-03T03:39:05.511Z,102010.55
2022-12-03T03:41:39.100Z,102007.98
2022-12-03T03:44:12.196Z,102009.67
2022-12-03T03:46:45.388Z,102009.23
2022-12-03T03:49:18.031Z,102015.17
2022-12-03T03:51:50.642Z,102010.18
2022-12-03T03:54:23.318Z,102012.61
2022-12-03T03:56:55.686Z,102012.75
2022-12-03T03:59:28.071Z,102015.35
2022-12-03T04:02:00.361Z,102016.34
2022-12-03T04:04:36.964Z,102013.70
2022-12-03T04:07:09.548Z,102017.83
2022-12-03T04:09:41.778Z,102015.75
2022-12-03T04:12:32.199Z,102020.89
2022-12-03T04:15:05.654Z,102021.36
2022-12-03T04:17:37.952Z,102021.17
2022-12-03T04:20:11.638Z,102023.11
2022-12-03T04:22:43.855Z,102028.85
2022-12-03T04:25:33.534Z,102028.44
2022-12-03T04:28:35.024Z,102027.63
2022-12-03T04:31:21.532Z,102028.78
2022-12-03T04:34:11.833Z,102031.98
2022-12-03T04:36:44.052Z,102031.48
2022-12-03T04:39:16.365Z,102030.61
2022-12-03T04:41:48.703Z,102028.52
2022-12-03T04:44:39.310Z,102029.34
2022-12-03T04:47:14.354Z,102036.31
2022-12-03T04:49:48.436Z,102033.16
2022-12-03T04:52:22.526Z,102036.09
2022-12-03T04:54:55.046Z,102040.77
2022-12-03T04:57:27.586Z,102037.09
2022-12-03T04:59:59.812Z,102037.02
2022-12-03T05:02:32.166Z,102036.07
2022-12-03T05:05:04.892Z,102035.27
2022-12-03T05:07:37.359Z,102032.13
2022-12-03T05:10:11.679Z,102033.74
2022-12-03T05:12:43.985Z,102032.77
2022-12-03T05:15:16.257Z,102035.85
2022-12-03T05:17:48.600Z,102035.60
2022-12-03T05:20:38.558Z,102036.16
2022-12-03T05:23:11.744Z,102038.03
2022-12-03T05:25:44.138Z,102040.88
2022-12-03T05:28:16.477Z,102043.73
2022-12-03T05:30:48.734Z,102048.00
2022-12-03T05:33:21.256Z,102050.52
2022-12-03T05:35:53.531Z,102051.75
2022-12-03T05:38:25.774Z,102055.27
2022-12-03T05:40:57.979Z,102053.36
2022-12-03T05:43:30.208Z,102059.58
2022-12-03T05:46:02.541Z,102062.98
2022-12-03T05:48:35.020Z,102062.00
2022-12-03T05:51:07.400Z,102064.45
2022-12-03T05:53:39.738Z,102067.96
2022-12-03T05:56:12.102Z,102067.29
2022-12-03T05:58:44.520Z,102074.05
2022-12-03T06:01:16.853Z,102079.88
2022-12-03T06:03:49.225Z,102081.10
2022-12-03T06:06:21.763Z,102083.86
2022-12-03T06:08:54.030Z,102084.77
2022-12-03T06:11:26.287Z,102082.95
2022-12-03T06:13:58.609Z,102083.92
2022-12-03T06:16:31.501Z,102087.17
2022-12-03T06:19:04.935Z,102087.63
2022-12-03T06:21:37.139Z,102085.00
2022-12-03T06:24:09.781Z,102086.45
2022-12-03T06:26:41.991Z,102088.22
2022-12-03T06:29:14.326Z,102092.72
2022-12-03T06:31:46.655Z,102093.13
2022-12-03T06:34:19.170Z,102094.39
2022-12-03T06:36:51.460Z,102095.22
2022-12-03T06:39:23.887Z,102101.73
2022-12-03T06:41:56.228Z,102102.47
2022-12-03T06:44:28.640Z,102107.79
2022-12-03T06:47:00.993Z,102104.31
2022-12-03T06:49:33.347Z,102108.96
2022-12-03T06:52:05.798Z,102113.71
2022-12-03T06:54:38.046Z,102116.45
2022-12-03T06:57:10.405Z,102120.05
2022-12-03T06:59:42.765Z,102120.66
2022-12-03T07:02:15.099Z,102117.77
2022-12-03T07:04:47.882Z,102118.55
2022-12-03T07:07:20.181Z,102122.27
2022-12-03T07:09:52.431Z,102126.02
2022-12-03T07:12:24.704Z,102115.83
2022-12-03T07:14:57.311Z,102121.38
2022-12-03T07:17:29.869Z,102113.05
2022-12-03T07:20:02.177Z,102117.39
2022-12-03T07:22:34.633Z,102117.61
2022-12-03T07:25:07.848Z,102122.10
2022-12-03T07:27:40.063Z,102124.38
2022-12-03T07:30:15.642Z,102123.24
2022-12-03T07:32:48.032Z,102124.35
2022-12-03T07:35:20.355Z,102129.45
2022-12-03T07:37:52.665Z,102136.14
2022-12-03T07:40:25.033Z,102136.70
2022-12-03T07:42:57.423Z,102137.59
2022-12-03T07:45:29.723Z,102142.18
2022-12-03T07:48:02.085Z,102143.20
2022-12-03T07:50:34.498Z,102146.58
2022-12-03T07:53:06.795Z,102144.04
2022-12-03T07:55:39.196Z,102144.26
2022-12-03T07:58:11.488Z,102143.69
2022-12-03T08:00:43.781Z,102147.36
2022-12-03T08:03:16.033Z,102147.73
2022-12-03T08:05:48.283Z,102146.94
2022-12-03T08:08:20.555Z,102148.99
2022-12-03T08:10:53.063Z,102150.38
2022-12-03T08:13:25.295Z,102151.02
2022-12-03T08:15:58.822Z,102156.88
2022-12-03T08:18:31.266Z,102161.56
2022-12-03T08:21:03.526Z,102163.53
2022-12-03T08:23:37.862Z,102162.14
2022-12-03T08:26:19.099Z,102157.28
2022-12-03T08:28:51.609Z,102154.66
2022-12-03T08:31:32.913Z,102153.52
2022-12-03T08:34:23.627Z,102148.65
2022-12-03T08:37:00.075Z,102148.14
2022-12-03T08:39:37.960Z,102144.20
2022-12-03T08:42:39.085Z,102144.84
2022-12-03T08:45:39.973Z,102143.36
2022-12-03T08:48:37.022Z,102146.66
2022-12-03T08:51:16.667Z,102150.73
2022-12-03T08:53:53.315Z,102148.52
2022-12-03T08:56:34.219Z,102145.27
2022-12-03T08:59:29.639Z,102143.61
2022-12-03T09:02:03.233Z,102144.09
2022-12-03T09:04:40.701Z,102144.51
2022-12-03T09:07:13.143Z,102143.85
2022-12-03T09:09:45.355Z,102140.36
2022-12-03T09:12:17.584Z,102137.08
2022-12-03T09:14:49.847Z,102132.86
2022-12-03T09:17:22.044Z,102137.61
2022-12-03T09:19:54.600Z,102138.64
2022-12-03T09:22:26.877Z,102134.17
2022-12-03T09:24:59.324Z,102132.98
2022-12-03T09:27:31.823Z,102126.08
2022-12-03T09:30:04.036Z,102127.81
2022-12-03T09:32:36.257Z,102120.55
2022-12-03T09:35:10.111Z,102121.04
2022-12-03T09:37:42.348Z,102121.53
2022-12-03T09:40:16.425Z,102123.58
2022-12-03T09:42:48.834Z,102115.98
2022-12-03T09:45:21.287Z,102114.74
2022-12-03T09:47:53.859Z,102109.77
2022-12-03T09:50:28.190Z,102102.99
2022-12-03T09:53:04.392Z,102105.45
2022-12-03T09:55:36.771Z,102112.98
2022-12-03T09:58:13.726Z,102109.04
2022-12-03T10:00:48.273Z,102116.11
2022-12-03T10:03:29.567Z,102114.98
2022-12-03T10:06:02.360Z,102115.46
2022-12-03T10:08:35.441Z,102108.83
2022-12-03T10:11:07.984Z,102109.20
2022-12-03T10:13:40.892Z,102113.05
2022-12-03T10:16:21.402Z,102115.15
2022-12-03T10:18:57.180Z,102115.61
2022-12-03T10:21:34.106Z,102116.11
2022-12-03T10:24:25.826Z,102116.16
2022-12-03T10:27:00.097Z,102113.82
2022-12-03T10:29:34.861Z,102112.04
2022-12-03T10:32:10.222Z,102111.14
2022-12-03T10:34:44.861Z,102110.86
2022-12-03T10:37:19.334Z,102107.52
2022-12-03T10:40:05.469Z,102107.47
2022-12-03T10:42:39.380Z,102105.67
2022-12-03T10:45:18.546Z,102106.89
2022-12-03T10:48:12.057Z,102105.17
2022-12-03T10:50:52.283Z,102108.36
2022-12-03T10:53:28.541Z,102108.48
2022-12-03T10:56:04.396Z,102104.30
2022-12-03T10:58:41.171Z,102100.30
2022-12-03T11:01:19.133Z,102101.09
2022-12-03T11:03:52.569Z,102100.20
2022-12-03T11:06:26.135Z,102096.60
2022-12-03T11:09:01.510Z,102094.66
2022-12-03T11:11:37.844Z,102095.11
2022-12-03T11:14:18.114Z,102094.60
2022-12-03T11:17:10.271Z,102099.01
2022-12-03T11:19:48.610Z,102100.96
2022-12-03T11:22:40.537Z,102100.98
2022-12-03T11:25:50.667Z,102099.42
2022-12-03T11:28:54.522Z,102094.67
2022-12-03T11:31:42.758Z,102097.06
2022-12-03T11:34:47.588Z,102099.29
2022-12-03T11:37:27.661Z,102104.42
2022-12-03T11:40:06.075Z,102105.41
2022-12-03T11:42:42.961Z,102103.27
2022-12-03T11:45:24.094Z,102106.58
2022-12-03T11:48:12.355Z,102107.20
2022-12-03T11:50:51.374Z,102109.37
2022-12-03T11:53:26.270Z,102110.64
2022-12-03T11:56:09.098Z,102105.73
2022-12-03T11:58:45.378Z,102102.37
2022-12-03T12:01:36.932Z,102101.27
2022-12-03T12:04:29.593Z,102100.10
2022-12-03T12:07:02.943Z,102095.61
2022-12-03T12:09:56.411Z,102095.12
2022-12-03T12:12:38.318Z,102090.80
2022-12-03T12:15:46.383Z,102088.29
2022-12-03T12:18:40.767Z,102093.73
2022-12-03T12:21:44.199Z,102087.59
2022-12-03T12:24:46.991Z,102085.11
2022-12-03T12:27:21.130Z,102079.70
2022-12-03T12:29:58.439Z,102079.23
2022-12-03T12:32:32.891Z,102078.67
2022-12-03T12:35:16.432Z,102082.30
2022-12-03T12:37:59.075Z,102088.34
2022-12-03T12:40:35.231Z,102099.55
2022-12-03T12:43:23.541Z,102096.75
2022-12-03T12:46:13.646Z,102089.38
2022-12-03T12:48:53.365Z,102090.35
2022-12-03T12:51:29.035Z,102094.70
2022-12-03T12:54:01.347Z,102096.05
2022-12-03T12:56:34.377Z,102096.16
2022-12-03T12:59:14.449Z,102100.84
2022-12-03T13:01:48.250Z,102097.71
2022-12-03T13:04:22.295Z,102099.05
2022-12-03T13:06:56.036Z,102098.98
2022-12-03T13:09:28.699Z,102099.91
2022-12-03T13:12:04.186Z,102103.91
2022-12-03T13:14:38.627Z,102102.63
2022-12-03T13:17:18.500Z,102103.10
2022-12-03T13:20:00.472Z,102099.61
2022-12-03T13:22:37.729Z,102097.65
2022-12-03T13:25:58.150Z,102097.13
2022-12-03T13:28:27.167Z,102099.52
2022-12-03T13:31:16.467Z,102104.55
2022-12-03T13:33:48.908Z,102106.23
2022-12-03T13:36:23.824Z,102108.57
2022-12-03T13:38:56.258Z,102110.95
2022-12-03T13:41:46.649Z,102109.52
2022-12-03T13:44:23.534Z,102114.14
2022-12-03T13:46:57.274Z,102113.23
2022-12-03T13:49:30.159Z,102111.84
2022-12-03T13:52:03.513Z,102116.30
2022-12-03T13:54:38.012Z,102118.21
2022-12-03T13:57:10.268Z,102126.72
2022-12-03T13:59:42.497Z,102132.70
2022-12-03T14:02:14.785Z,102135.20
2022-12-03T14:04:47.226Z,102138.45
2022-12-03T14:07:19.458Z,102137.54
2022-12-03T14:09:52.122Z,102131.09
2022-12-03T14:12:27.659Z,102136.79
2022-12-03T14:14:59.961Z,102140.44
2022-12-03T14:17:32.322Z,102142.96
2022-12-03T14:20:05.411Z,102144.74
2022-12-03T14:22:38.283Z,102145.39
2022-12-03T14:25:11.799Z,102144.11
2022-12-03T14:27:44.125Z,102144.86
2022-12-03T14:30:17.277Z,102150.40
2022-12-03T14:32:49.595Z,102153.20
2022-12-03T14:35:21.829Z,102153.73
2022-12-03T14:37:54.083Z,102152.80
2022-12-03T14:40:27.357Z,102155.74
2022-12-03T14:42:59.606Z,102158.71
2022-12-03T14:45:32.171Z,102157.16
2022-12-03T14:48:04.530Z,102159.24
2022-12-03T14:50:36.851Z,102156.46
2022-12-03T14:53:09.163Z,102156.95
2022-12-03T14:55:41.383Z,102159.20
2022-12-03T14:58:13.706Z,102159.95
2022-12-03T15:00:45.970Z,102165.11
2022-12-03T15:03:18.272Z,102159.95
2022-12-03T15:05:50.727Z,102161.80
2022-12-03T15:08:23.176Z,102162.05
2022-12-03T15:10:55.501Z,102160.86
2022-12-03T15:13:27.721Z,102162.13
2022-12-03T15:16:00.070Z,102163.25
2022-12-03T15:18:34.678Z,102164.11
2022-12-03T15:21:07.307Z,102163.71
2022-12-03T15:23:39.619Z,102166.75
2022-12-03T15:26:12.124Z,102175.12
2022-12-03T15:28:48.268Z,102178.25
2022-12-03T15:31:20.982Z,102176.15
2022-12-03T15:33:53.297Z,102175.63
2022-12-03T15:36:25.584Z,102172.33
2022-12-03T15:38:58.016Z,102176.46
2022-12-03T15:41:30.331Z,102180.06
2022-12-03T15:44:03.610Z,102179.11
2022-12-03T15:46:36.022Z,102180.91
2022-12-03T15:49:08.374Z,102180.95
2022-12-03T15:51:41.237Z,102184.54
2022-12-03T15:54:13.578Z,102185.02
2022-12-03T15:56:45.931Z,102188.62
2022-12-03T15:59:18.268Z,102193.09
2022-12-03T16:01:50.595Z,102194.89
2022-12-03T16:04:22.966Z,102193.75
2022-12-03T16:06:55.265Z,102200.84
2022-12-03T16:09:27.915Z,102200.27
2022-12-03T16:12:00.331Z,102202.92
2022-12-03T16:14:32.669Z,102205.58
2022-12-03T16:17:05.124Z,102202.55
2022-12-03T16:19:38.777Z,102203.80
2022-12-03T16:22:11.632Z,102203.13
2022-12-03T16:24:44.791Z,102213.06
2022-12-03T16:27:19.583Z,102212.02
2022-12-03T16:29:54.173Z,102214.38
2022-12-03T16:32:26.740Z,102216.75
2022-12-03T16:34:59.036Z,102215.36
2022-12-03T16:37:31.347Z,102214.98
2022-12-03T16:40:04.421Z,102214.66
2022-12-03T16:42:37.515Z,102214.27
2022-12-03T16:45:51.040Z,102212.25
2022-12-03T16:48:23.703Z,102212.19
2022-12-03T16:50:56.067Z,102217.42
2022-12-03T16:53:28.401Z,102220.77
2022-12-03T16:56:00.732Z,102223.00
2022-12-03T16:58:33.031Z,102227.36
2022-12-03T17:01:05.411Z,102228.89
2022-12-03T17:03:37.940Z,102227.95
2022-12-03T17:06:10.526Z,102233.64
2022-12-03T17:08:48.817Z,102238.50
2022-12-03T17:11:22.044Z,102247.72
2022-12-03T17:13:54.398Z,102246.14
2022-12-03T17:16:26.786Z,102247.89
2022-12-03T17:18:59.051Z,102247.50
2022-12-03T17:21:34.865Z,102250.11
2022-12-03T17:24:08.345Z,102253.19
2022-12-03T17:26:42.015Z,102249.87
2022-12-03T17:29:14.335Z,102253.81
2022-12-03T17:31:46.732Z,102259.42
2022-12-03T17:34:19.082Z,102255.20
2022-12-03T17:36:51.397Z,102258.62
2022-12-03T17:39:23.698Z,102261.46
2022-12-03T17:41:56.031Z,102265.26
2022-12-03T17:44:28.287Z,102267.49
2022-12-03T17:47:00.604Z,102269.89
2022-12-03T17:49:32.960Z,102276.42
2022-12-03T17:52:05.703Z,102277.86
2022-12-03T17:55:01.991Z,102281.75
2022-12-03T17:57:30.374Z,102284.08
2022-12-03T18:00:02.679Z,102285.66
2022-12-03T18:02:35.030Z,102288.25
2022-12-03T18:05:07.883Z,102286.89
2022-12-03T18:07:40.162Z,102286.38
2022-12-03T18:10:12.747Z,102289.52
2022-12-03T18:12:45.167Z,102292.85
2022-12-03T18:15:17.605Z,102297.22
2022-12-03T18:17:49.896Z,102295.77
2022-12-03T18:20:22.238Z,102298.86
2022-12-03T18:22:54.528Z,102293.71
2022-12-03T18:25:27.127Z,102294.55
2022-12-03T18:27:59.502Z,102295.86
2022-12-03T18:30:31.785Z,102299.90
2022-12-03T18:33:04.122Z,102307.58
2022-12-03T18:35:36.638Z,102304.36
2022-12-03T18:38:11.243Z,102305.73
2022-12-03T18:40:44.400Z,102308.16
2022-12-03T18:43:18.236Z,102312.55
2022-12-03T18:45:50.583Z,102312.98
2022-12-03T18:48:23.273Z,102311.60
2022-12-03T18:50:56.598Z,102312.95
2022-12-03T18:53:28.813Z,102311.65
2022-12-03T18:56:01.124Z,102315.98
2022-12-03T18:58:33.449Z,102318.92
2022-12-03T19:01:07.345Z,102323.60
2022-12-03T19:03:39.742Z,102319.13
2022-12-03T19:06:18.795Z,102325.30
2022-12-03T19:08:54.286Z,102325.42
2022-12-03T19:11:26.532Z,102323.39
2022-12-03T19:13:59.739Z,102321.52
2022-12-03T19:16:32.251Z,102326.90
2022-12-03T19:19:04.583Z,102325.45
2022-12-03T19:21:36.994Z,102325.19
2022-12-03T19:24:25.898Z,102324.63
2022-12-03T19:26:58.400Z,102325.40
2022-12-03T19:29:30.672Z,102328.98
2022-12-03T19:32:03.000Z,102330.77
2022-12-03T19:34:35.429Z,102334.32
2022-12-03T19:37:07.745Z,102332.33
2022-12-03T19:39:40.055Z,102328.34
2022-12-03T19:42:12.706Z,102333.73
2022-12-03T19:44:45.011Z,102337.52
2022-12-03T19:47:17.271Z,102340.98
2022-12-03T19:49:49.512Z,102345.98
2022-12-03T19:52:21.796Z,102342.97
2022-12-03T19:54:54.076Z,102339.69
2022-12-03T19:57:26.444Z,102337.92
2022-12-03T19:59:58.716Z,102339.73
2022-12-03T20:02:31.138Z,102340.65
2022-12-03T20:05:03.507Z,102342.98
2022-12-03T20:07:35.826Z,102341.23
2022-12-03T20:10:09.933Z,102342.73
2022-12-03T20:12:42.228Z,102347.59
2022-12-03T20:15:15.418Z,102346.89
2022-12-03T20:17:47.820Z,102346.27
2022-12-03T20:20:20.336Z,102344.80
2022-12-03T20:22:52.709Z,102347.70
2022-12-03T20:25:25.063Z,102349.69
2022-12-03T20:27:57.309Z,102354.34
2022-12-03T20:30:29.644Z,102351.00
2022-12-03T20:33:01.903Z,102358.48
2022-12-03T20:35:35.975Z,102359.45
2022-12-03T20:38:08.303Z,102363.63
2022-12-03T20:40:40.689Z,102362.10
2022-12-03T20:43:12.923Z,102363.77
2022-12-03T20:45:45.459Z,102365.59
2022-12-03T20:48:17.770Z,102362.15
2022-12-03T20:50:50.010Z,102359.30
2022-12-03T20:53:25.098Z,102360.89
2022-12-03T20:56:00.228Z,102364.80
2022-12-03T20:58:33.502Z,102363.73
2022-12-03T21:01:15.975Z,102366.55
2022-12-03T21:03:49.932Z,102366.40
2022-12-03T21:06:23.926Z,102365.58
2022-12-03T21:08:57.752Z,102366.92
2022-12-03T21:11:32.583Z,102365.28
2022-12-03T21:14:06.160Z,102360.95
2022-12-03T21:17:06.479Z,102360.02
2022-12-03T21:19:32.475Z,102361.42
2022-12-03T21:22:04.719Z,102360.91
2022-12-03T21:24:37.028Z,102360.75
2022-12-03T21:27:09.399Z,102361.98
2022-12-03T21:29:41.804Z,102359.83
2022-12-03T21:32:14.136Z,102362.02
2022-12-03T21:34:46.510Z,102361.41
2022-12-03T21:37:18.780Z,102361.05
2022-12-03T21:39:51.022Z,102365.71
2022-12-03T21:42:35.917Z,102357.73
2022-12-03T21:45:10.991Z,102362.07
2022-12-03T21:47:43.540Z,102365.53
2022-12-03T21:50:16.160Z,102363.02
2022-12-03T21:52:50.584Z,102355.61
2022-12-03T21:55:22.803Z,102357.00
2022-12-03T21:57:55.136Z,102361.52
2022-12-03T22:00:27.764Z,102357.67
2022-12-03T22:03:00.128Z,102350.75
2022-12-03T22:05:32.442Z,102350.40
2022-12-03T22:08:04.934Z,102350.52
2022-12-03T22:10:38.003Z,102349.95
2022-12-03T22:13:10.282Z,102351.14
2022-12-03T22:15:42.581Z,102350.44
2022-12-03T22:18:14.982Z,102348.89
2022-12-03T22:20:47.235Z,102350.83
2022-12-03T22:23:19.461Z,102344.52
2022-12-03T22:26:00.950Z,102345.98
2022-12-03T22:28:34.128Z,102356.88
2022-12-03T22:31:10.552Z,102360.84
2022-12-03T22:33:43.611Z,102358.78
2022-12-03T22:36:21.117Z,102362.16
2022-12-03T22:38:54.417Z,102360.32
2022-12-03T22:41:26.864Z,102354.92
2022-12-03T22:43:59.116Z,102354.58
2022-12-03T22:46:31.470Z,102352.19
2022-12-03T22:49:07.373Z,102353.27
2022-12-03T22:51:40.323Z,102349.69
2022-12-03T22:54:13.800Z,102346.61
2022-12-03T22:56:46.003Z,102345.45
2022-12-03T22:59:18.454Z,102342.27
2022-12-03T23:01:50.677Z,102348.06
2022-12-03T23:04:23.098Z,102345.89
2022-12-03T23:06:55.428Z,102348.04
2022-12-03T23:09:27.702Z,102346.20
2022-12-03T23:12:00.032Z,102343.41
2022-12-03T23:14:32.341Z,102342.86
2022-12-03T23:17:04.814Z,102340.99
2022-12-03T23:19:37.247Z,102338.55
2022-12-03T23:22:09.561Z,102331.44
2022-12-03T23:24:41.817Z,102335.16
2022-12-03T23:27:14.078Z,102328.41
2022-12-03T23:29:46.418Z,102323.48
2022-12-03T23:32:18.640Z,102325.95
2022-12-03T23:34:51.221Z,102322.50
2022-12-03T23:37:23.817Z,102322.83
2022-12-03T23:39:56.455Z,102322.77
2022-12-03T23:42:28.957Z,102318.36
2022-12-03T23:45:01.256Z,102320.02
2022-12-03T23:47:33.535Z,102327.26
2022-12-03T23:50:06.362Z,102330.55
2022-12-03T23:52:39.645Z,102328.36
2022-12-03T23:55:12.466Z,102324.20
2022-12-03T23:57:44.798Z,102325.81
